createdAt,value
2018-09-22T00:00:04.127Z,3.87
2018-09-22T00:05:07.374Z,3.80
2018-09-22T00:10:10.650Z,3.10
2018-09-22T00:15:13.855Z,3.30
2018-09-22T00:20:17.093Z,2.93
2018-09-22T00:25:20.692Z,3.30
2018-09-22T00:30:23.905Z,2.67
2018-09-22T00:35:27.238Z,2.43
2018-09-22T00:40:30.565Z,3.27
2018-09-22T00:45:33.986Z,2.37
2018-09-22T00:50:37.329Z,2.67
2018-09-22T00:55:40.524Z,2.37
2018-09-22T01:00:44.008Z,2.43
2018-09-22T01:05:47.245Z,2.83
2018-09-22T01:10:50.599Z,2.20
2018-09-22T01:15:53.773Z,2.70
2018-09-22T01:20:57.035Z,2.00
2018-09-22T01:26:00.303Z,2.23
2018-09-22T01:31:03.922Z,2.07
2018-09-22T01:36:07.329Z,2.43
2018-09-22T01:41:10.573Z,2.50
2018-09-22T01:46:14.003Z,2.47
2018-09-22T01:51:17.706Z,2.50
2018-09-22T01:56:22.258Z,2.43
2018-09-22T02:01:25.584Z,2.50
2018-09-22T02:06:28.878Z,2.43
2018-09-22T02:11:32.092Z,2.13
2018-09-22T02:16:36.930Z,1.80
2018-09-22T02:21:40.177Z,1.90
2018-09-22T02:26:43.514Z,1.70
2018-09-22T02:31:46.793Z,1.90
2018-09-22T02:36:50.289Z,2.10
2018-09-22T02:41:53.594Z,2.53
2018-09-22T02:46:56.829Z,3.10
2018-09-22T02:52:00.346Z,3.00
2018-09-22T02:57:03.611Z,2.30
2018-09-22T03:02:06.906Z,2.23
2018-09-22T03:07:10.114Z,2.10
2018-09-22T03:12:13.270Z,2.20
2018-09-22T03:17:16.684Z,3.00
2018-09-22T03:22:19.868Z,1.53
2018-09-22T03:27:23.410Z,1.87
2018-09-22T03:32:26.928Z,1.60
2018-09-22T03:37:30.357Z,2.20
2018-09-22T03:42:33.830Z,2.17
2018-09-22T03:47:36.989Z,2.37
2018-09-22T03:52:40.199Z,1.60
2018-09-22T03:57:43.810Z,1.97
2018-09-22T04:02:47.225Z,2.50
2018-09-22T04:07:50.641Z,1.80
2018-09-22T04:12:53.985Z,1.73
2018-09-22T04:17:57.362Z,1.40
2018-09-22T04:23:00.782Z,1.20
2018-09-22T04:28:04.517Z,1.83
2018-09-22T04:33:08.488Z,1.93
2018-09-22T04:38:11.676Z,1.80
2018-09-22T04:43:15.060Z,2.00
2018-09-22T04:48:18.996Z,4.07
2018-09-22T04:53:22.344Z,1.73
2018-09-22T04:58:26.156Z,1.40
2018-09-22T05:03:29.553Z,1.43
2018-09-22T05:08:33.566Z,1.30
2018-09-22T05:13:37.032Z,1.50
2018-09-22T05:18:40.509Z,1.80
2018-09-22T05:23:43.851Z,1.40
2018-09-22T05:28:47.681Z,1.43
2018-09-22T05:33:51.067Z,1.57
2018-09-22T05:38:54.577Z,1.30
2018-09-22T05:43:57.813Z,1.37
2018-09-22T05:49:01.813Z,1.70
2018-09-22T05:54:05.479Z,1.27
2018-09-22T05:59:09.260Z,1.03
2018-09-22T06:04:12.683Z,1.60
2018-09-22T06:09:16.189Z,1.30
2018-09-22T06:14:19.734Z,1.70
2018-09-22T06:19:23.221Z,1.83
2018-09-22T06:24:26.698Z,1.97
2018-09-22T06:29:31.281Z,2.10
2018-09-22T06:34:34.688Z,1.50
2018-09-22T06:39:38.371Z,1.60
2018-09-22T06:44:42.096Z,1.40
2018-09-22T06:49:45.681Z,1.80
2018-09-22T06:54:49.133Z,1.43
2018-09-22T06:59:52.419Z,1.60
2018-09-22T07:04:56.942Z,1.47
2018-09-22T07:10:00.256Z,1.87
2018-09-22T07:15:03.854Z,1.70
2018-09-22T07:20:07.310Z,1.80
2018-09-22T07:25:10.593Z,1.97
2018-09-22T07:30:13.947Z,1.80
2018-09-22T07:35:17.637Z,2.10
2018-09-22T07:40:20.929Z,2.40
2018-09-22T07:45:25.497Z,2.30
2018-09-22T07:50:29.722Z,2.30
2018-09-22T07:55:33.118Z,2.47
2018-09-22T08:00:36.407Z,2.10
2018-09-22T08:05:39.780Z,2.63
2018-09-22T08:10:43.815Z,1.57
2018-09-22T08:15:47.058Z,2.30
2018-09-22T08:20:50.339Z,2.00
2018-09-22T08:25:54.611Z,2.67
2018-09-22T08:30:58.862Z,2.20
2018-09-22T08:36:03.092Z,2.10
2018-09-22T08:41:06.751Z,2.40
2018-09-22T08:46:10.055Z,2.13
2018-09-22T08:51:13.564Z,2.23
2018-09-22T08:56:17.185Z,2.20
2018-09-22T09:01:20.527Z,2.43
2018-09-22T09:06:23.970Z,1.90
2018-09-22T09:11:27.356Z,2.63
2018-09-22T09:16:30.794Z,2.27
2018-09-22T09:21:34.119Z,2.30
2018-09-22T09:26:37.507Z,2.07
2018-09-22T09:31:40.782Z,2.67
2018-09-22T09:36:44.072Z,4.53
2018-09-22T09:41:47.463Z,2.40
2018-09-22T09:46:50.914Z,2.80
2018-09-22T09:51:54.334Z,2.67
2018-09-22T09:56:57.780Z,2.37
2018-09-22T10:02:01.229Z,1.77
2018-09-22T10:07:05.189Z,2.17
2018-09-22T10:12:08.667Z,1.60
2018-09-22T10:17:12.333Z,2.43
2018-09-22T10:22:16.010Z,2.10
2018-09-22T10:27:19.630Z,2.13
2018-09-22T10:32:23.453Z,2.00
2018-09-22T10:37:27.470Z,1.37
2018-09-22T10:42:31.347Z,1.80
2018-09-22T10:47:35.345Z,1.50
2018-09-22T10:52:38.988Z,2.30
2018-09-22T10:57:42.723Z,1.60
2018-09-22T11:02:46.257Z,1.87
2018-09-22T11:07:49.796Z,1.97
2018-09-22T11:12:53.078Z,1.73
2018-09-22T11:17:56.331Z,2.70
2018-09-22T11:22:59.891Z,1.90
2018-09-22T11:28:03.212Z,2.40
2018-09-22T11:33:06.526Z,1.87
2018-09-22T11:38:09.876Z,2.20
2018-09-22T11:43:14.976Z,2.10
2018-09-22T11:48:18.727Z,1.53
2018-09-22T11:53:22.850Z,1.60
2018-09-22T11:58:26.168Z,2.53
2018-09-22T12:03:29.702Z,1.87
2018-09-22T12:08:33.039Z,1.80
2018-09-22T12:13:36.610Z,2.20
2018-09-22T12:18:40.013Z,1.77
2018-09-22T12:23:43.525Z,1.60
2018-09-22T12:28:47.820Z,1.80
2018-09-22T12:33:51.417Z,1.80
2018-09-22T12:38:54.666Z,1.73
2018-09-22T12:43:58.411Z,1.97
2018-09-22T12:49:02.193Z,1.57
2018-09-22T12:54:05.879Z,1.40
2018-09-22T12:59:09.162Z,1.30
2018-09-22T13:04:12.549Z,1.27
2018-09-22T13:09:15.924Z,1.30
2018-09-22T13:14:19.221Z,1.40
2018-09-22T13:19:22.617Z,1.60
2018-09-22T13:24:26.207Z,1.60
2018-09-22T13:29:29.468Z,1.00
2018-09-22T13:34:36.291Z,1.30
2018-09-22T13:39:39.657Z,1.10
2018-09-22T13:44:42.934Z,1.00
2018-09-22T13:49:46.196Z,1.20
2018-09-22T13:54:49.520Z,1.53
2018-09-22T13:59:53.309Z,1.40
2018-09-22T14:04:56.652Z,1.80
2018-09-22T14:10:00.152Z,1.37
2018-09-22T14:15:03.753Z,1.10
2018-09-22T14:20:07.656Z,1.23
2018-09-22T14:25:11.330Z,1.20
2018-09-22T14:30:14.894Z,1.23
2018-09-22T14:35:18.252Z,1.30
2018-09-22T14:40:22.059Z,1.00
2018-09-22T14:45:25.311Z,1.40
2018-09-22T14:50:29.780Z,1.00
2018-09-22T14:55:33.292Z,2.23
2018-09-22T15:00:36.542Z,1.07
2018-09-22T15:05:40.129Z,1.20
2018-09-22T15:10:43.640Z,0.97
2018-09-22T15:15:47.611Z,1.27
2018-09-22T15:20:51.131Z,0.87
2018-09-22T15:25:54.613Z,1.43
2018-09-22T15:30:58.063Z,1.40
2018-09-22T15:36:03.065Z,1.20
2018-09-22T15:41:06.630Z,1.80
2018-09-22T15:46:09.952Z,2.43
2018-09-22T15:51:13.503Z,2.43
2018-09-22T15:56:17.009Z,2.37
2018-09-22T16:01:20.339Z,1.67
2018-09-22T16:06:24.042Z,1.80
2018-09-22T16:11:27.851Z,1.97
2018-09-22T16:16:31.417Z,1.40
2018-09-22T16:21:35.055Z,1.67
2018-09-22T16:26:38.638Z,1.63
2018-09-22T16:31:42.320Z,1.47
2018-09-22T16:36:45.618Z,1.37
2018-09-22T16:41:49.060Z,1.30
2018-09-22T16:46:52.374Z,1.23
2018-09-22T16:51:55.990Z,1.53
2018-09-22T16:56:59.956Z,1.20
2018-09-22T17:02:03.294Z,1.63
2018-09-22T17:07:07.303Z,1.53
2018-09-22T17:12:13.180Z,1.00
2018-09-22T17:17:17.406Z,1.23
2018-09-22T17:22:20.926Z,1.67
2018-09-22T17:27:24.376Z,1.50
2018-09-22T17:32:27.787Z,1.13
2018-09-22T17:37:31.639Z,1.87
2018-09-22T17:42:35.218Z,1.63
2018-09-22T17:47:39.084Z,1.43
2018-09-22T17:52:42.394Z,1.67
2018-09-22T17:57:46.627Z,1.77
2018-09-22T18:02:50.380Z,2.30
2018-09-22T18:07:53.660Z,1.77
2018-09-22T18:12:57.169Z,2.07
2018-09-22T18:18:01.466Z,2.30
2018-09-22T18:23:04.736Z,1.77
2018-09-22T18:28:08.015Z,2.03
2018-09-22T18:33:12.112Z,1.90
2018-09-22T18:38:15.721Z,1.93
2018-09-22T18:43:40.807Z,1.77
2018-09-22T18:48:44.811Z,1.93
2018-09-22T18:53:48.748Z,2.50
2018-09-22T18:58:52.291Z,2.50
2018-09-22T19:03:55.741Z,2.33
2018-09-22T19:09:38.440Z,2.70
2018-09-22T19:14:56.128Z,2.87
2018-09-22T19:20:07.039Z,2.13
2018-09-22T19:25:13.938Z,1.97
2018-09-22T19:30:48.592Z,2.40
2018-09-22T19:36:00.217Z,1.90
2018-09-22T19:41:08.610Z,2.63
2018-09-22T19:46:33.359Z,2.47
2018-09-22T19:51:41.811Z,3.20
2018-09-22T20:06:13.736Z,3.10
2018-09-22T20:11:17.557Z,2.60
2018-09-22T20:16:20.940Z,2.80
2018-09-22T20:21:24.557Z,2.80
2018-09-22T20:26:28.267Z,3.33
2018-09-22T20:31:32.433Z,2.90
2018-09-22T20:36:38.726Z,3.27
2018-09-22T20:41:42.674Z,4.03
2018-09-22T20:46:45.955Z,3.00
2018-09-22T20:51:49.302Z,3.30
2018-09-22T20:56:52.640Z,3.67
2018-09-22T21:01:56.120Z,2.87
2018-09-22T21:06:59.532Z,3.40
2018-09-22T21:12:03.094Z,3.73
2018-09-22T21:17:06.641Z,3.10
2018-09-22T21:22:10.121Z,3.63
2018-09-22T21:27:13.385Z,3.50
2018-09-22T21:32:16.701Z,3.43
2018-09-22T21:37:20.178Z,2.90
2018-09-22T21:42:23.644Z,3.00
2018-09-22T21:47:27.046Z,2.57
2018-09-22T21:52:30.416Z,3.13
2018-09-22T21:57:33.985Z,2.77
2018-09-22T22:02:38.416Z,2.30
2018-09-22T22:07:41.863Z,2.50
2018-09-22T22:12:45.247Z,2.70
2018-09-22T22:17:48.497Z,2.60
2018-09-22T22:22:52.441Z,2.90
2018-09-22T22:27:55.695Z,2.63
2018-09-22T22:32:59.197Z,2.97
2018-09-22T22:38:02.681Z,2.87
2018-09-22T22:43:05.853Z,2.93
2018-09-22T22:48:09.185Z,2.30
2018-09-22T22:53:12.479Z,2.80
2018-09-22T22:58:15.655Z,2.97
2018-09-22T23:03:19.060Z,2.83
2018-09-22T23:08:22.274Z,2.73
2018-09-22T23:13:25.671Z,2.50
2018-09-22T23:18:28.932Z,2.03
2018-09-22T23:23:32.153Z,2.20
2018-09-22T23:28:35.609Z,2.27
2018-09-22T23:33:38.838Z,2.53
2018-09-22T23:38:48.834Z,2.60
2018-09-22T23:43:52.169Z,2.57
2018-09-22T23:48:55.437Z,2.53
2018-09-22T23:53:58.686Z,2.50
2018-09-22T23:59:01.915Z,2.30
